createdAt,value
2018-06-01T00:02:03.907Z,7.70
2018-06-01T00:04:31.169Z,7.97
2018-06-01T00:06:58.444Z,8.40
2018-06-01T00:09:25.709Z,7.20
2018-06-01T00:11:52.979Z,7.27
2018-06-01T00:14:20.236Z,6.80
2018-06-01T00:16:47.514Z,7.77
2018-06-01T00:19:14.772Z,7.90
2018-06-01T00:21:42.077Z,7.67
2018-06-01T00:24:09.434Z,8.10
2018-06-01T00:26:36.719Z,7.30
2018-06-01T00:29:04.044Z,7.13
2018-06-01T00:31:31.314Z,8.37
2018-06-01T00:33:58.568Z,8.23
2018-06-01T00:36:25.907Z,7.30
2018-06-01T00:38:53.167Z,8.60
2018-06-01T00:41:20.512Z,7.07
2018-06-01T00:43:47.767Z,5.50
2018-06-01T00:46:15.042Z,5.33
2018-06-01T00:48:42.303Z,7.87
2018-06-01T00:51:09.575Z,5.53
2018-06-01T00:53:36.834Z,6.07
2018-06-01T00:56:04.107Z,4.83
2018-06-01T00:58:31.395Z,5.53
2018-06-01T01:00:58.637Z,3.90
2018-06-01T01:03:25.889Z,2.67
2018-06-01T01:05:53.159Z,1.50
2018-06-01T01:08:20.415Z,2.40
2018-06-01T01:10:47.759Z,2.40
2018-06-01T01:13:15.003Z,2.70
2018-06-01T01:15:42.283Z,3.23
2018-06-01T01:18:09.546Z,2.80
2018-06-01T01:20:36.818Z,3.20
2018-06-01T01:23:04.231Z,4.30
2018-06-01T01:25:31.519Z,3.80
2018-06-01T01:27:58.831Z,3.83
2018-06-01T01:30:26.092Z,3.07
2018-06-01T01:32:53.350Z,2.47
2018-06-01T01:35:20.602Z,2.50
2018-06-01T01:37:47.950Z,2.53
2018-06-01T01:40:15.196Z,2.03
2018-06-01T01:42:42.467Z,1.90
2018-06-01T01:45:09.723Z,1.90
2018-06-01T01:47:36.996Z,2.03
2018-06-01T01:50:04.243Z,2.53
2018-06-01T01:52:31.517Z,2.07
2018-06-01T01:54:58.767Z,2.93
2018-06-01T01:57:26.078Z,2.40
2018-06-01T01:59:53.341Z,2.83
2018-06-01T02:02:20.602Z,2.43
2018-06-01T02:04:47.852Z,2.17
2018-06-01T02:07:15.194Z,2.27
2018-06-01T02:09:42.454Z,2.80
2018-06-01T02:12:09.722Z,2.20
2018-06-01T02:14:37.059Z,2.30
2018-06-01T02:17:04.423Z,1.40
2018-06-01T02:19:31.675Z,1.20
2018-06-01T02:21:59.031Z,0.93
2018-06-01T02:24:26.277Z,0.90
2018-06-01T02:26:53.538Z,1.03
2018-06-01T02:29:20.892Z,1.00
2018-06-01T02:31:48.172Z,0.90
2018-06-01T02:34:15.499Z,0.97
2018-06-01T02:36:42.766Z,0.80
2018-06-01T02:39:10.019Z,1.00
2018-06-01T02:41:37.290Z,1.13
2018-06-01T02:44:04.534Z,1.00
2018-06-01T02:46:31.870Z,1.10
2018-06-01T02:48:59.224Z,1.03
2018-06-01T02:51:26.506Z,1.10
2018-06-01T02:53:53.764Z,1.07
2018-06-01T02:56:21.034Z,0.97
2018-06-01T02:58:48.295Z,1.10
2018-06-01T03:01:15.543Z,1.30
2018-06-01T03:03:42.807Z,1.10
2018-06-01T03:06:10.065Z,1.20
2018-06-01T03:08:37.334Z,1.20
2018-06-01T03:11:04.586Z,1.30
2018-06-01T03:13:31.846Z,1.20
2018-06-01T03:15:59.111Z,1.30
2018-06-01T03:18:26.468Z,1.23
2018-06-01T03:20:53.728Z,1.33
2018-06-01T03:23:21.005Z,1.00
2018-06-01T03:25:48.300Z,1.60
2018-06-01T03:28:15.527Z,1.50
2018-06-01T03:30:42.771Z,1.43
2018-06-01T03:33:10.044Z,1.93
2018-06-01T03:35:37.342Z,1.33
2018-06-01T03:38:04.699Z,1.60
2018-06-01T03:40:31.951Z,1.20
2018-06-01T03:42:59.230Z,1.30
2018-06-01T03:45:26.575Z,1.60
2018-06-01T03:50:27.607Z,1.40
2018-06-01T03:52:54.885Z,1.50
2018-06-01T03:55:22.131Z,1.40
2018-06-01T03:57:49.401Z,1.33
2018-06-01T04:00:16.656Z,1.60
2018-06-01T04:02:43.927Z,1.43
2018-06-01T04:05:11.185Z,1.53
2018-06-01T04:07:38.450Z,1.80
2018-06-01T04:10:05.759Z,1.73
2018-06-01T04:12:33.002Z,1.50
2018-06-01T04:15:00.271Z,1.77
2018-06-01T04:17:27.524Z,1.90
2018-06-01T04:19:54.863Z,1.80
2018-06-01T04:22:22.122Z,1.97
2018-06-01T04:24:49.393Z,2.10
2018-06-01T04:27:16.730Z,1.70
2018-06-01T04:29:44.568Z,2.03
2018-06-01T04:32:12.077Z,1.97
2018-06-01T04:34:39.444Z,2.67
2018-06-01T04:37:06.691Z,3.70
2018-06-01T04:39:34.052Z,4.80
2018-06-01T04:42:01.305Z,4.47
2018-06-01T04:44:28.580Z,4.87
2018-06-01T04:46:55.841Z,5.90
2018-06-01T04:49:23.148Z,6.00
2018-06-01T04:51:50.399Z,6.70
2018-06-01T04:54:17.676Z,6.37
2018-06-01T04:56:44.922Z,6.27
2018-06-01T04:59:12.195Z,6.50
2018-06-01T05:01:39.511Z,6.50
2018-06-01T05:04:06.864Z,5.90
2018-06-01T05:06:34.116Z,7.10
2018-06-01T05:09:01.391Z,7.80
2018-06-01T05:11:28.643Z,6.70
2018-06-01T05:13:55.932Z,6.13
2018-06-01T05:16:23.231Z,5.53
2018-06-01T05:18:50.498Z,5.87
2018-06-01T05:21:17.840Z,4.67
2018-06-01T05:23:45.767Z,5.17
2018-06-01T05:26:13.018Z,4.40
2018-06-01T05:28:40.389Z,4.80
2018-06-01T05:31:07.640Z,4.80
2018-06-01T05:33:34.910Z,3.90
2018-06-01T05:36:02.263Z,3.03
2018-06-01T05:38:29.538Z,2.97
2018-06-01T05:40:56.778Z,3.23
2018-06-01T05:43:24.398Z,2.80
2018-06-01T05:45:51.667Z,2.60
2018-06-01T05:48:18.919Z,2.70
2018-06-01T05:50:46.194Z,2.97
2018-06-01T05:53:13.919Z,3.10
2018-06-01T05:55:41.224Z,3.20
2018-06-01T05:58:08.488Z,3.10
2018-06-01T06:00:35.847Z,3.60
2018-06-01T06:03:03.095Z,2.50
2018-06-01T06:05:30.363Z,1.87
2018-06-01T06:07:57.622Z,1.70
2018-06-01T06:10:24.900Z,2.30
2018-06-01T06:12:52.150Z,1.90
2018-06-01T06:15:19.418Z,1.80
2018-06-01T06:17:46.719Z,2.20
2018-06-01T06:20:13.930Z,2.13
2018-06-01T06:22:41.192Z,2.10
2018-06-01T06:25:08.470Z,1.80
2018-06-01T06:27:35.715Z,2.03
2018-06-01T06:30:02.991Z,2.67
2018-06-01T06:32:30.239Z,1.80
2018-06-01T06:34:57.502Z,2.07
2018-06-01T06:37:24.759Z,2.50
2018-06-01T06:39:52.020Z,2.30
2018-06-01T06:42:19.271Z,2.20
2018-06-01T06:44:46.542Z,2.03
2018-06-01T06:47:13.800Z,1.90
2018-06-01T06:49:41.117Z,2.17
2018-06-01T06:52:08.375Z,3.40
2018-06-01T06:54:35.652Z,2.67
2018-06-01T06:57:03.047Z,2.60
2018-06-01T06:59:30.310Z,2.40
2018-06-01T07:01:57.587Z,2.30
2018-06-01T07:04:24.860Z,1.97
2018-06-01T07:06:52.195Z,2.40
2018-06-01T07:09:19.462Z,1.93
2018-06-01T07:11:46.719Z,1.97
2018-06-01T07:14:13.975Z,2.20
2018-06-01T07:16:41.245Z,2.40
2018-06-01T07:19:08.495Z,2.33
2018-06-01T07:21:35.778Z,2.33
2018-06-01T07:24:03.036Z,2.37
2018-06-01T07:26:30.310Z,2.63
2018-06-01T07:28:57.559Z,1.80
2018-06-01T07:31:24.826Z,2.40
2018-06-01T07:33:52.088Z,2.17
2018-06-01T07:36:19.351Z,2.10
2018-06-01T07:38:46.697Z,2.30
2018-06-01T07:41:13.962Z,2.50
2018-06-01T07:43:41.209Z,2.30
2018-06-01T07:46:08.475Z,3.17
2018-06-01T07:48:35.735Z,2.10
2018-06-01T07:51:03.010Z,2.27
2018-06-01T07:53:30.257Z,2.50
2018-06-01T07:55:57.570Z,2.40
2018-06-01T07:58:24.823Z,2.63
2018-06-01T08:00:52.099Z,2.80
2018-06-01T08:03:19.336Z,2.60
2018-06-01T08:05:46.606Z,2.43
2018-06-01T08:08:13.861Z,2.83
2018-06-01T08:10:41.127Z,2.47
2018-06-01T08:13:08.375Z,2.80
2018-06-01T08:15:35.647Z,2.70
2018-06-01T08:18:02.908Z,2.70
2018-06-01T08:20:30.179Z,3.00
2018-06-01T08:22:57.427Z,3.57
2018-06-01T08:25:25.233Z,3.57
2018-06-01T08:27:52.650Z,3.67
2018-06-01T08:30:19.969Z,3.97
2018-06-01T08:32:47.227Z,4.13
2018-06-01T08:35:14.494Z,3.80
2018-06-01T08:37:41.745Z,3.57
2018-06-01T08:40:09.012Z,3.20
2018-06-01T08:42:36.263Z,3.37
2018-06-01T08:45:03.527Z,4.17
2018-06-01T08:47:30.811Z,4.10
2018-06-01T08:49:58.054Z,3.80
2018-06-01T08:52:25.344Z,3.63
2018-06-01T08:54:52.586Z,3.80
2018-06-01T08:57:19.855Z,4.20
2018-06-01T08:59:47.102Z,3.93
2018-06-01T09:02:14.371Z,3.87
2018-06-01T09:04:42.011Z,3.87
2018-06-01T09:07:09.296Z,4.30
2018-06-01T09:09:36.539Z,4.20
2018-06-01T09:12:03.795Z,3.93
2018-06-01T09:14:31.044Z,4.10
2018-06-01T09:16:58.320Z,4.63
2018-06-01T09:19:25.571Z,4.70
2018-06-01T09:21:52.842Z,3.60
2018-06-01T09:24:20.089Z,4.03
2018-06-01T09:26:47.355Z,4.80
2018-06-01T09:29:14.615Z,3.90
2018-06-01T09:31:41.875Z,4.70
2018-06-01T09:34:09.122Z,5.10
2018-06-01T09:36:36.391Z,4.20
2018-06-01T09:39:03.645Z,4.33
2018-06-01T09:41:30.912Z,4.60
2018-06-01T09:43:58.167Z,4.67
2018-06-01T09:46:25.441Z,4.50
2018-06-01T09:48:52.683Z,4.70
2018-06-01T09:51:19.963Z,4.67
2018-06-01T09:53:47.208Z,4.57
2018-06-01T09:56:14.482Z,4.47
2018-06-01T09:58:42.269Z,4.33
2018-06-01T10:01:09.540Z,4.40
2018-06-01T10:03:36.791Z,4.77
2018-06-01T10:06:04.063Z,4.57
2018-06-01T10:08:31.307Z,4.60
2018-06-01T10:10:58.803Z,4.43
2018-06-01T10:13:26.031Z,4.10
2018-06-01T10:15:53.292Z,4.00
2018-06-01T10:18:20.567Z,4.03
2018-06-01T10:20:47.820Z,3.57
2018-06-01T10:23:15.089Z,3.33
2018-06-01T10:25:42.345Z,3.50
2018-06-01T10:28:09.608Z,3.60
2018-06-01T10:30:36.869Z,3.27
2018-06-01T10:33:04.213Z,3.67
2018-06-01T10:35:31.453Z,3.83
2018-06-01T10:37:58.724Z,3.03
2018-06-01T10:40:25.971Z,4.13
2018-06-01T10:42:53.245Z,3.80
2018-06-01T10:45:20.507Z,3.37
2018-06-01T10:47:47.775Z,3.73
2018-06-01T10:50:15.030Z,3.60
2018-06-01T10:52:42.291Z,3.53
2018-06-01T10:55:09.549Z,3.17
2018-06-01T10:57:36.821Z,3.63
2018-06-01T11:00:04.072Z,3.43
2018-06-01T11:02:31.339Z,3.90
2018-06-01T11:04:58.596Z,3.80
2018-06-01T11:07:25.872Z,3.00
2018-06-01T11:09:53.164Z,3.43
2018-06-01T11:12:20.433Z,2.73
2018-06-01T11:14:47.679Z,3.27
2018-06-01T11:17:14.949Z,3.10
2018-06-01T11:19:42.196Z,2.27
2018-06-01T11:22:09.471Z,2.80
2018-06-01T11:24:36.729Z,2.57
2018-06-01T11:27:04.019Z,2.37
2018-06-01T11:29:31.251Z,2.63
2018-06-01T11:31:58.516Z,2.27
2018-06-01T11:34:25.770Z,2.20
2018-06-01T11:36:53.036Z,2.30
2018-06-01T11:39:20.300Z,2.30
2018-06-01T11:41:47.550Z,2.60
2018-06-01T11:44:14.818Z,2.80
2018-06-01T11:46:42.068Z,3.00
2018-06-01T11:49:09.340Z,2.60
2018-06-01T11:51:36.606Z,2.87
2018-06-01T11:54:03.895Z,2.50
2018-06-01T11:56:31.151Z,2.57
2018-06-01T11:58:58.423Z,2.73
2018-06-01T12:01:25.676Z,2.80
2018-06-01T12:03:52.938Z,2.80
2018-06-01T12:06:20.200Z,2.70
2018-06-01T12:08:47.463Z,2.70
2018-06-01T12:11:14.795Z,3.17
2018-06-01T12:13:41.983Z,3.17
2018-06-01T12:16:09.236Z,2.57
2018-06-01T12:18:36.510Z,2.83
2018-06-01T12:21:03.770Z,3.80
2018-06-01T12:23:31.040Z,3.87
2018-06-01T12:25:58.295Z,3.43
2018-06-01T12:28:25.568Z,3.10
2018-06-01T12:30:52.826Z,3.00
2018-06-01T12:33:20.091Z,3.00
2018-06-01T12:35:47.348Z,2.60
2018-06-01T12:38:14.620Z,2.60
2018-06-01T12:40:41.870Z,2.40
2018-06-01T12:43:09.143Z,3.33
2018-06-01T12:45:36.395Z,2.90
2018-06-01T12:48:03.670Z,2.80
2018-06-01T12:50:30.926Z,2.60
2018-06-01T12:52:58.188Z,3.10
2018-06-01T12:55:25.451Z,3.17
2018-06-01T12:57:52.712Z,2.77
2018-06-01T13:00:19.972Z,3.43
2018-06-01T13:02:47.240Z,3.20
2018-06-01T13:05:14.497Z,2.80
2018-06-01T13:07:41.743Z,2.83
2018-06-01T13:10:10.613Z,3.33
2018-06-01T13:12:38.083Z,3.30
2018-06-01T13:15:05.361Z,2.80
2018-06-01T13:17:32.606Z,3.10
2018-06-01T13:19:59.875Z,2.93
2018-06-01T13:22:27.127Z,3.00
2018-06-01T13:24:54.395Z,3.53
2018-06-01T13:27:21.655Z,2.43
2018-06-01T13:29:48.925Z,2.70
2018-06-01T13:32:16.174Z,2.50
2018-06-01T13:34:43.450Z,2.80
2018-06-01T13:37:10.767Z,3.10
2018-06-01T13:39:38.039Z,2.63
2018-06-01T13:42:05.300Z,2.90
2018-06-01T13:44:32.572Z,2.27
2018-06-01T13:46:59.819Z,1.90
2018-06-01T13:49:27.087Z,1.80
2018-06-01T13:51:54.339Z,2.10
2018-06-01T13:54:21.615Z,2.10
2018-06-01T13:56:48.882Z,2.17
2018-06-01T13:59:16.147Z,2.30
2018-06-01T14:01:43.405Z,2.20
2018-06-01T14:04:10.671Z,2.07
2018-06-01T14:06:37.919Z,2.00
2018-06-01T14:09:05.192Z,2.20
2018-06-01T14:11:32.434Z,1.67
2018-06-01T14:13:59.707Z,1.80
2018-06-01T14:16:26.972Z,1.90
2018-06-01T14:18:54.243Z,2.03
2018-06-01T14:21:21.493Z,2.07
2018-06-01T14:23:48.770Z,2.10
2018-06-01T14:26:16.040Z,2.00
2018-06-01T14:28:43.308Z,2.00
2018-06-01T14:31:10.563Z,1.70
2018-06-01T14:33:37.837Z,1.60
2018-06-01T14:36:05.080Z,1.63
2018-06-01T14:38:32.335Z,1.40
2018-06-01T14:40:59.616Z,1.60
2018-06-01T14:43:26.855Z,1.87
2018-06-01T14:45:54.130Z,1.57
2018-06-01T14:48:21.390Z,1.97
2018-06-01T14:50:49.350Z,1.80
2018-06-01T14:53:16.972Z,1.43
2018-06-01T14:55:44.235Z,1.50
2018-06-01T14:58:11.484Z,1.67
2018-06-01T15:00:38.755Z,1.77
2018-06-01T15:03:06.007Z,1.90
2018-06-01T15:05:33.275Z,1.90
2018-06-01T15:08:00.523Z,1.70
2018-06-01T15:10:27.798Z,2.10
2018-06-01T15:12:55.042Z,2.00
2018-06-01T15:15:22.318Z,1.80
2018-06-01T15:17:49.572Z,1.90
2018-06-01T15:20:16.864Z,2.23
2018-06-01T15:22:44.089Z,1.90
2018-06-01T15:25:11.356Z,2.30
2018-06-01T15:27:38.607Z,2.20
2018-06-01T15:30:05.886Z,2.20
2018-06-01T15:32:33.129Z,2.40
2018-06-01T15:35:00.396Z,1.90
2018-06-01T15:37:27.654Z,2.20
2018-06-01T15:39:54.918Z,2.10
2018-06-01T15:42:22.170Z,2.00
2018-06-01T15:44:49.435Z,2.43
2018-06-01T15:47:16.685Z,2.07
2018-06-01T15:49:43.952Z,1.90
2018-06-01T15:52:11.205Z,2.10
2018-06-01T15:54:38.475Z,1.87
2018-06-01T15:57:05.725Z,2.30
2018-06-01T15:59:32.990Z,2.10
2018-06-01T16:02:00.309Z,2.20
2018-06-01T16:04:27.583Z,2.20
2018-06-01T16:06:54.839Z,2.33
2018-06-01T16:09:22.097Z,2.50
2018-06-01T16:11:49.358Z,2.10
2018-06-01T16:14:16.677Z,2.57
2018-06-01T16:16:43.936Z,2.33
2018-06-01T16:19:11.188Z,2.60
2018-06-01T16:21:38.536Z,1.90
2018-06-01T16:24:05.791Z,1.90
2018-06-01T16:26:33.052Z,2.20
2018-06-01T16:29:00.308Z,1.80
2018-06-01T16:31:27.625Z,2.10
2018-06-01T16:33:54.833Z,2.20
2018-06-01T16:36:22.095Z,1.90
2018-06-01T16:38:49.350Z,2.10
2018-06-01T16:41:16.620Z,2.03
2018-06-01T16:43:43.875Z,2.20
2018-06-01T16:46:11.143Z,2.00
2018-06-01T16:48:38.405Z,2.00
2018-06-01T16:51:05.667Z,1.60
2018-06-01T16:53:32.915Z,2.00
2018-06-01T16:56:00.187Z,1.80
2018-06-01T16:58:27.441Z,1.80
2018-06-01T17:00:54.703Z,1.90
2018-06-01T17:03:21.963Z,2.00
2018-06-01T17:05:49.231Z,1.80
2018-06-01T17:08:16.486Z,2.10
2018-06-01T17:10:43.751Z,1.40
2018-06-01T17:13:11.001Z,1.80
2018-06-01T17:15:38.311Z,2.00
2018-06-01T17:18:05.540Z,1.67
2018-06-01T17:20:32.814Z,1.60
2018-06-01T17:23:00.058Z,1.20
2018-06-01T17:25:27.341Z,1.27
2018-06-01T17:27:54.590Z,1.73
2018-06-01T17:30:21.862Z,1.50
2018-06-01T17:32:49.195Z,1.77
2018-06-01T17:35:16.450Z,2.00
2018-06-01T17:37:43.720Z,1.73
2018-06-01T17:40:10.967Z,1.70
2018-06-01T17:42:38.244Z,1.90
2018-06-01T17:45:05.573Z,2.00
2018-06-01T17:47:32.860Z,1.57
2018-06-01T17:50:00.102Z,1.80
2018-06-01T17:52:27.375Z,1.60
2018-06-01T17:54:54.628Z,1.70
2018-06-01T17:57:21.912Z,1.57
2018-06-01T17:59:49.152Z,1.70
2018-06-01T18:02:16.429Z,1.73
2018-06-01T18:04:43.679Z,1.80
2018-06-01T18:07:10.948Z,1.60
2018-06-01T18:09:38.211Z,1.87
2018-06-01T18:12:05.478Z,1.77
2018-06-01T18:14:32.818Z,1.70
2018-06-01T18:17:00.169Z,1.63
2018-06-01T18:19:27.419Z,1.57
2018-06-01T18:21:54.671Z,1.80
2018-06-01T18:24:21.951Z,1.53
2018-06-01T18:26:49.278Z,2.27
2018-06-01T18:29:16.558Z,1.90
2018-06-01T18:31:43.807Z,1.50
2018-06-01T18:34:11.149Z,1.60
2018-06-01T18:36:38.395Z,1.67
2018-06-01T18:39:05.654Z,1.73
2018-06-01T18:41:32.906Z,1.87
2018-06-01T18:44:00.233Z,2.00
2018-06-01T18:46:27.529Z,1.60
2018-06-01T18:48:54.803Z,1.80
2018-06-01T18:51:22.131Z,1.73
2018-06-01T18:53:49.398Z,2.20
2018-06-01T18:56:16.652Z,2.00
2018-06-01T18:58:43.983Z,1.70
2018-06-01T19:01:11.238Z,1.90
2018-06-01T19:03:38.523Z,2.20
2018-06-01T19:06:05.860Z,1.90
2018-06-01T19:08:33.142Z,2.53
2018-06-01T19:11:00.454Z,2.20
2018-06-01T19:13:27.821Z,2.13
2018-06-01T19:15:55.067Z,2.00
2018-06-01T19:18:22.335Z,2.00
2018-06-01T19:20:49.674Z,2.20
2018-06-01T19:23:16.951Z,2.07
2018-06-01T19:25:44.231Z,1.90
2018-06-01T19:28:11.480Z,2.27
2018-06-01T19:30:38.747Z,2.00
2018-06-01T19:33:06.005Z,2.10
2018-06-01T19:35:33.267Z,2.23
2018-06-01T19:38:00.559Z,2.30
2018-06-01T19:40:27.827Z,2.30
2018-06-01T19:42:55.083Z,2.27
2018-06-01T19:45:22.360Z,2.07
2018-06-01T19:47:49.671Z,2.50
2018-06-01T19:50:16.947Z,2.10
2018-06-01T19:52:44.232Z,2.10
2018-06-01T19:55:11.473Z,1.83
2018-06-01T19:57:38.723Z,2.57
2018-06-01T20:00:05.990Z,1.80
2018-06-01T20:02:33.251Z,2.00
2018-06-01T20:05:00.524Z,2.10
2018-06-01T20:07:27.766Z,1.80
2018-06-01T20:09:55.034Z,2.70
2018-06-01T20:12:22.296Z,2.53
2018-06-01T20:14:49.569Z,2.20
2018-06-01T20:17:16.823Z,2.73
2018-06-01T20:19:44.095Z,2.13
2018-06-01T20:22:11.361Z,2.90
2018-06-01T20:24:38.627Z,2.43
2018-06-01T20:27:05.883Z,2.80
2018-06-01T20:29:33.400Z,2.80
2018-06-01T20:32:00.660Z,3.13
2018-06-01T20:34:27.930Z,3.50
2018-06-01T20:36:55.190Z,3.30
2018-06-01T20:39:22.456Z,3.00
2018-06-01T20:41:49.713Z,3.17
2018-06-01T20:44:16.987Z,3.03
2018-06-01T20:46:44.236Z,3.37
2018-06-01T20:49:11.515Z,2.60
2018-06-01T20:51:39.145Z,2.73
2018-06-01T20:54:06.394Z,3.10
2018-06-01T20:56:33.664Z,3.47
2018-06-01T20:59:00.919Z,3.17
2018-06-01T21:01:28.194Z,3.10
2018-06-01T21:03:55.467Z,3.03
2018-06-01T21:06:22.755Z,2.67
2018-06-01T21:08:49.984Z,3.07
2018-06-01T21:11:17.252Z,3.40
2018-06-01T21:13:44.508Z,3.40
2018-06-01T21:16:11.782Z,3.57
2018-06-01T21:18:39.028Z,3.70
2018-06-01T21:21:06.295Z,2.67
2018-06-01T21:23:33.562Z,2.63
2018-06-01T21:26:00.827Z,3.37
2018-06-01T21:28:28.078Z,3.33
2018-06-01T21:30:55.392Z,2.60
2018-06-01T21:33:22.632Z,3.13
2018-06-01T21:35:49.897Z,2.90
2018-06-01T21:38:17.147Z,2.63
2018-06-01T21:40:44.418Z,2.90
2018-06-01T21:43:11.666Z,2.90
2018-06-01T21:45:38.935Z,2.60
2018-06-01T21:48:06.196Z,3.17
2018-06-01T21:50:33.472Z,3.60
2018-06-01T21:53:00.732Z,2.77
2018-06-01T21:55:27.999Z,3.57
2018-06-01T21:57:55.252Z,3.10
2018-06-01T22:00:22.533Z,3.03
2018-06-01T22:02:49.775Z,3.00
2018-06-01T22:05:17.047Z,4.10
2018-06-01T22:07:44.298Z,2.97
2018-06-01T22:10:11.573Z,3.73
2018-06-01T22:12:38.823Z,3.77
2018-06-01T22:15:06.091Z,3.70
2018-06-01T22:17:33.348Z,3.50
2018-06-01T22:20:00.623Z,3.67
2018-06-01T22:22:27.872Z,3.10
2018-06-01T22:24:55.132Z,2.90
2018-06-01T22:27:22.399Z,3.63
2018-06-01T22:29:49.659Z,3.53
2018-06-01T22:32:16.933Z,3.40
2018-06-01T22:34:44.176Z,3.20
2018-06-01T22:37:11.448Z,3.70
2018-06-01T22:39:38.701Z,3.30
2018-06-01T22:42:05.963Z,3.20
2018-06-01T22:44:33.219Z,3.50
2018-06-01T22:47:00.488Z,2.80
2018-06-01T22:49:27.739Z,3.40
2018-06-01T22:51:55.007Z,3.27
2018-06-01T22:54:22.263Z,3.27
2018-06-01T22:56:49.527Z,2.97
2018-06-01T22:59:16.781Z,3.00
2018-06-01T23:01:44.051Z,3.50
2018-06-01T23:04:11.299Z,3.53
2018-06-01T23:06:38.567Z,3.57
2018-06-01T23:09:05.831Z,3.63
2018-06-01T23:11:33.096Z,3.03
2018-06-01T23:14:00.352Z,3.40
2018-06-01T23:16:27.611Z,3.30
2018-06-01T23:18:54.867Z,3.17
2018-06-01T23:21:22.133Z,2.93
2018-06-01T23:23:49.382Z,3.40
2018-06-01T23:26:16.654Z,3.40
2018-06-01T23:28:43.899Z,3.30
2018-06-01T23:31:11.177Z,3.70
2018-06-01T23:33:38.418Z,4.30
2018-06-01T23:36:05.673Z,3.67
2018-06-01T23:38:32.940Z,3.60
2018-06-01T23:41:00.277Z,4.20
2018-06-01T23:43:27.557Z,3.90
2018-06-01T23:45:54.801Z,3.27
2018-06-01T23:48:22.072Z,3.70
2018-06-01T23:50:49.325Z,4.07
2018-06-01T23:53:16.598Z,4.10
2018-06-01T23:55:43.853Z,4.20
2018-06-01T23:58:11.128Z,4.17
